createdAt,value
2019-03-26T00:01:24.433Z,2.92
2019-03-26T00:04:05.343Z,3.70
2019-03-26T00:06:23.483Z,2.20
2019-03-26T00:08:52.216Z,2.65
2019-03-26T00:11:20.583Z,4.55
2019-03-26T00:13:49.044Z,4.30
2019-03-26T00:16:20.678Z,2.37
2019-03-26T00:18:49.509Z,3.50
2019-03-26T00:21:25.074Z,4.22
2019-03-26T00:23:57.392Z,3.37
2019-03-26T00:26:25.809Z,4.87
2019-03-26T00:28:54.199Z,3.33
2019-03-26T00:31:22.868Z,3.30
2019-03-26T00:33:51.416Z,3.70
2019-03-26T00:36:19.821Z,3.72
2019-03-26T00:38:48.543Z,4.05
2019-03-26T00:41:22.129Z,4.37
2019-03-26T00:43:50.517Z,3.67
2019-03-26T00:46:18.952Z,2.72
2019-03-26T00:48:47.778Z,5.22
2019-03-26T00:51:16.173Z,4.47
2019-03-26T00:53:44.851Z,4.70
2019-03-26T00:56:13.629Z,2.02
2019-03-26T00:58:42.469Z,2.60
2019-03-26T01:01:11.242Z,2.02
2019-03-26T01:03:39.652Z,4.00
2019-03-26T01:06:08.482Z,3.22
2019-03-26T01:08:37.236Z,3.08
2019-03-26T01:11:06.417Z,2.80
2019-03-26T01:13:34.803Z,4.37
2019-03-26T01:16:10.503Z,3.95
2019-03-26T01:18:38.868Z,4.37
2019-03-26T01:21:13.388Z,2.17
2019-03-26T01:23:41.812Z,3.50
2019-03-26T01:26:14.169Z,3.87
2019-03-26T01:28:42.566Z,3.58
2019-03-26T01:31:18.018Z,2.45
2019-03-26T01:33:46.426Z,3.65
2019-03-26T01:36:14.848Z,4.50
2019-03-26T01:38:43.653Z,4.75
2019-03-26T01:41:19.344Z,5.00
2019-03-26T01:43:48.009Z,3.92
2019-03-26T01:46:23.755Z,2.58
2019-03-26T01:48:52.182Z,3.83
2019-03-26T01:51:24.849Z,4.30
2019-03-26T01:53:53.281Z,4.10
2019-03-26T01:56:22.130Z,5.60
2019-03-26T01:58:50.560Z,3.20
2019-03-26T02:01:21.587Z,4.87
2019-03-26T02:03:50.391Z,3.02
2019-03-26T02:06:18.766Z,2.15
2019-03-26T02:08:47.184Z,3.92
2019-03-26T02:11:22.753Z,3.02
2019-03-26T02:13:51.169Z,3.60
2019-03-26T02:16:25.684Z,5.00
2019-03-26T02:18:54.086Z,3.20
2019-03-26T02:21:22.489Z,3.98
2019-03-26T02:23:50.904Z,3.05
2019-03-26T02:26:19.328Z,3.95
2019-03-26T02:28:47.683Z,4.42
2019-03-26T02:31:20.901Z,4.25
2019-03-26T02:33:49.300Z,3.67
2019-03-26T02:36:24.070Z,2.87
2019-03-26T02:38:52.494Z,2.83
2019-03-26T02:41:25.438Z,4.55
2019-03-26T02:43:53.840Z,3.45
2019-03-26T02:46:23.527Z,4.20
2019-03-26T02:48:52.333Z,3.33
2019-03-26T02:51:20.715Z,3.12
2019-03-26T02:53:49.171Z,3.33
2019-03-26T02:56:20.410Z,4.95
2019-03-26T02:58:48.827Z,4.33
2019-03-26T03:01:17.190Z,3.70
2019-03-26T03:03:45.676Z,5.42
2019-03-26T03:06:20.944Z,3.67
2019-03-26T03:08:49.291Z,5.87
2019-03-26T03:11:19.609Z,3.20
2019-03-26T03:13:48.067Z,1.85
2019-03-26T03:16:19.946Z,3.22
2019-03-26T03:18:48.762Z,3.30
2019-03-26T03:21:17.244Z,3.75
2019-03-26T03:23:45.629Z,4.97
2019-03-26T03:26:20.892Z,2.22
2019-03-26T03:28:49.303Z,3.72
2019-03-26T03:31:17.737Z,3.02
2019-03-26T03:33:46.625Z,3.80
2019-03-26T03:36:14.972Z,1.98
2019-03-26T03:38:43.753Z,3.05
2019-03-26T03:41:19.317Z,4.85
2019-03-26T03:43:47.690Z,3.70
2019-03-26T03:46:22.108Z,2.55
2019-03-26T03:48:51.204Z,4.85
2019-03-26T03:51:20.419Z,4.22
2019-03-26T03:53:48.782Z,2.87
2019-03-26T03:56:24.878Z,4.03
2019-03-26T03:58:53.380Z,3.22
2019-03-26T04:01:28.686Z,3.37
2019-03-26T04:03:57.071Z,3.58
2019-03-26T04:06:25.462Z,2.65
2019-03-26T04:08:53.836Z,5.40
2019-03-26T04:11:22.329Z,4.40
2019-03-26T04:13:50.694Z,3.52
2019-03-26T04:16:26.082Z,2.33
2019-03-26T04:18:54.503Z,2.62
2019-03-26T04:21:22.889Z,4.00
2019-03-26T04:23:52.956Z,4.10
2019-03-26T04:26:21.908Z,3.35
2019-03-26T04:28:50.300Z,3.85
2019-03-26T04:31:24.788Z,4.33
2019-03-26T04:33:53.158Z,3.08
2019-03-26T04:36:25.847Z,2.75
2019-03-26T04:38:51.739Z,3.77
2019-03-26T04:41:20.154Z,5.87
2019-03-26T04:43:48.569Z,4.50
2019-03-26T04:46:23.552Z,3.52
2019-03-26T04:48:52.490Z,3.72
2019-03-26T04:51:27.027Z,3.72
2019-03-26T04:53:55.464Z,2.40
2019-03-26T04:56:24.196Z,3.33
2019-03-26T04:58:52.561Z,2.90
2019-03-26T05:01:21.287Z,2.98
2019-03-26T05:03:49.689Z,3.25
2019-03-26T05:06:37.448Z,3.90
2019-03-26T05:08:55.387Z,1.87
2019-03-26T05:11:23.772Z,3.45
2019-03-26T05:13:52.300Z,4.42
2019-03-26T05:16:20.720Z,4.35
2019-03-26T05:18:49.202Z,4.42
2019-03-26T05:21:24.396Z,4.03
2019-03-26T05:23:53.232Z,3.08
2019-03-26T05:26:22.133Z,6.37
2019-03-26T05:28:50.488Z,5.30
2019-03-26T05:31:25.603Z,4.62
2019-03-26T05:33:54.061Z,7.42
2019-03-26T05:36:22.716Z,4.15
2019-03-26T05:38:51.517Z,3.33
2019-03-26T05:41:21.498Z,7.65
2019-03-26T05:43:50.700Z,9.23
2019-03-26T05:46:19.108Z,6.37
2019-03-26T05:48:47.896Z,10.58
2019-03-26T05:51:16.251Z,8.08
2019-03-26T05:53:44.887Z,11.08
2019-03-26T05:56:13.235Z,8.15
2019-03-26T05:58:42.389Z,10.13
2019-03-26T06:01:18.205Z,10.75
2019-03-26T06:03:46.645Z,10.88
2019-03-26T06:06:15.007Z,11.25
2019-03-26T06:08:43.736Z,8.90
2019-03-26T06:11:12.239Z,7.47
2019-03-26T06:13:40.622Z,6.58
2019-03-26T06:16:15.475Z,9.00
2019-03-26T06:18:44.422Z,6.90
2019-03-26T06:21:19.291Z,6.45
2019-03-26T06:23:48.094Z,7.30
2019-03-26T06:26:16.458Z,5.42
2019-03-26T06:28:45.236Z,8.55
2019-03-26T06:31:20.186Z,12.93
2019-03-26T06:33:48.546Z,9.03
2019-03-26T06:36:17.763Z,8.38
2019-03-26T06:38:46.239Z,14.28
2019-03-26T06:41:15.107Z,11.45
2019-03-26T06:43:43.519Z,16.77
2019-03-26T06:46:11.896Z,17.67
2019-03-26T06:48:46.639Z,22.67
2019-03-26T06:51:21.282Z,13.58
2019-03-26T06:53:49.917Z,15.20
2019-03-26T06:56:18.960Z,18.87
2019-03-26T06:58:47.670Z,22.55
2019-03-26T07:01:25.407Z,18.70
2019-03-26T07:03:53.826Z,20.48
2019-03-26T07:06:22.195Z,20.35
2019-03-26T07:08:53.411Z,21.87
2019-03-26T07:11:21.766Z,16.65
2019-03-26T07:13:50.282Z,16.85
2019-03-26T07:16:19.014Z,19.30
2019-03-26T07:18:47.645Z,21.52
2019-03-26T07:21:19.486Z,12.10
2019-03-26T07:23:47.892Z,13.08
2019-03-26T07:26:16.319Z,16.85
2019-03-26T07:28:45.055Z,18.60
2019-03-26T07:31:13.479Z,17.52
2019-03-26T07:33:42.238Z,13.88
2019-03-26T07:36:15.866Z,15.93
2019-03-26T07:38:44.235Z,14.55
2019-03-26T07:41:19.116Z,17.27
2019-03-26T07:43:47.905Z,15.20
2019-03-26T07:46:22.942Z,13.65
2019-03-26T07:48:51.296Z,16.82
2019-03-26T07:51:19.727Z,17.15
2019-03-26T07:53:48.363Z,9.63
2019-03-26T07:56:16.731Z,9.45
2019-03-26T07:58:46.899Z,8.55
2019-03-26T08:01:19.188Z,13.45
2019-03-26T08:03:47.659Z,15.10
2019-03-26T08:06:23.783Z,15.38
2019-03-26T08:08:52.203Z,12.47
2019-03-26T08:11:20.653Z,12.40
2019-03-26T08:13:49.108Z,13.53
2019-03-26T08:16:18.420Z,14.00
2019-03-26T08:18:47.127Z,15.15
2019-03-26T08:21:21.177Z,14.93
2019-03-26T08:23:49.835Z,10.25
2019-03-26T08:26:18.213Z,12.45
2019-03-26T08:28:46.887Z,11.33
2019-03-26T08:31:15.300Z,9.08
2019-03-26T08:33:43.765Z,14.75
2019-03-26T08:36:12.119Z,14.25
2019-03-26T08:38:40.848Z,13.18
2019-03-26T08:41:15.990Z,9.45
2019-03-26T08:43:44.707Z,10.15
2019-03-26T08:46:20.390Z,11.28
2019-03-26T08:48:49.120Z,11.73
2019-03-26T08:51:18.106Z,8.85
2019-03-26T08:53:46.539Z,13.03
2019-03-26T08:56:21.212Z,10.25
2019-03-26T08:58:49.626Z,8.65
2019-03-26T09:01:19.831Z,11.33
2019-03-26T09:03:48.237Z,12.30
2019-03-26T09:06:21.407Z,14.28
2019-03-26T09:08:49.824Z,10.03
2019-03-26T09:11:18.625Z,12.25
2019-03-26T09:13:47.392Z,8.45
2019-03-26T09:16:16.308Z,9.40
2019-03-26T09:18:44.830Z,10.72
2019-03-26T09:21:14.511Z,9.88
2019-03-26T09:23:43.996Z,10.55
2019-03-26T09:26:19.455Z,10.70
2019-03-26T09:28:48.269Z,10.23
2019-03-26T09:31:21.394Z,9.15
2019-03-26T09:33:50.061Z,9.55
2019-03-26T09:36:19.916Z,8.85
2019-03-26T09:38:48.282Z,8.15
2019-03-26T09:41:17.497Z,8.50
2019-03-26T09:43:46.958Z,6.08
2019-03-26T09:46:22.370Z,9.95
2019-03-26T09:48:51.111Z,8.53
2019-03-26T09:51:19.470Z,7.97
2019-03-26T09:53:47.835Z,7.67
2019-03-26T09:56:27.955Z,7.22
2019-03-26T09:58:46.355Z,5.33
2019-03-26T10:01:17.607Z,5.78
2019-03-26T10:03:46.023Z,4.92
2019-03-26T10:06:23.341Z,7.40
2019-03-26T10:08:52.222Z,7.58
2019-03-26T10:11:16.842Z,9.18
2019-03-26T10:13:45.605Z,6.40
2019-03-26T10:16:15.815Z,7.87
2019-03-26T10:18:44.804Z,8.08
2019-03-26T10:21:19.703Z,5.78
2019-03-26T10:23:48.592Z,6.62
2019-03-26T10:26:16.947Z,6.37
2019-03-26T10:28:45.411Z,6.83
2019-03-26T10:31:17.769Z,7.47
2019-03-26T10:33:46.499Z,6.10
2019-03-26T10:36:18.626Z,6.92
2019-03-26T10:38:47.082Z,6.17
2019-03-26T10:41:18.665Z,6.12
2019-03-26T10:43:47.303Z,6.08
2019-03-26T10:46:19.497Z,8.25
2019-03-26T10:48:47.961Z,5.65
2019-03-26T10:51:17.942Z,6.80
2019-03-26T10:53:47.195Z,9.10
2019-03-26T10:56:23.093Z,5.83
2019-03-26T10:58:51.929Z,4.22
2019-03-26T11:01:21.343Z,5.45
2019-03-26T11:03:49.856Z,4.60
2019-03-26T11:06:18.945Z,6.03
2019-03-26T11:08:47.408Z,4.60
2019-03-26T11:11:15.762Z,5.10
2019-03-26T11:13:44.274Z,4.62
2019-03-26T11:16:15.065Z,4.00
2019-03-26T11:18:50.101Z,5.58
2019-03-26T11:21:22.200Z,3.58
2019-03-26T11:23:50.977Z,4.08
2019-03-26T11:26:19.820Z,6.75
2019-03-26T11:28:48.555Z,4.33
2019-03-26T11:31:18.674Z,3.62
2019-03-26T11:33:47.360Z,4.53
2019-03-26T11:36:16.168Z,3.75
2019-03-26T11:38:44.958Z,2.90
2019-03-26T11:41:13.431Z,5.47
2019-03-26T11:43:42.077Z,4.15
2019-03-26T11:46:10.506Z,8.15
2019-03-26T11:48:39.293Z,53.95
2019-03-26T11:51:07.764Z,38.92
2019-03-26T11:53:45.117Z,35.43
2019-03-26T11:56:13.491Z,40.58
2019-03-26T11:58:42.961Z,42.35
2019-03-26T12:01:16.284Z,40.67
2019-03-26T12:03:48.235Z,39.05
2019-03-26T12:06:22.745Z,34.70
2019-03-26T12:08:51.490Z,34.40
2019-03-26T12:11:19.947Z,36.85
2019-03-26T12:13:48.742Z,33.30
2019-03-26T12:16:24.631Z,35.98
2019-03-26T12:18:53.111Z,40.35
2019-03-26T12:21:26.943Z,36.48
2019-03-26T12:23:55.365Z,31.80
2019-03-26T12:26:26.780Z,35.55
2019-03-26T12:28:55.508Z,28.95
2019-03-26T12:31:25.309Z,27.55
2019-03-26T12:33:56.263Z,35.03
2019-03-26T12:36:24.636Z,29.90
2019-03-26T12:38:53.372Z,28.92
2019-03-26T12:41:21.743Z,28.02
2019-03-26T12:43:50.889Z,26.68
2019-03-26T12:46:19.341Z,27.62
2019-03-26T12:48:48.157Z,25.85
2019-03-26T12:51:23.301Z,24.80
2019-03-26T12:53:52.001Z,26.15
2019-03-26T12:56:22.094Z,25.88
2019-03-26T12:58:50.474Z,25.65
2019-03-26T13:01:25.425Z,23.20
2019-03-26T13:03:53.774Z,20.62
2019-03-26T13:06:28.558Z,24.47
2019-03-26T13:08:57.253Z,22.67
2019-03-26T13:11:26.082Z,19.12
2019-03-26T13:13:54.656Z,20.37
2019-03-26T13:16:23.286Z,17.32
2019-03-26T13:18:52.480Z,19.55
2019-03-26T13:21:21.480Z,20.17
2019-03-26T13:23:49.905Z,25.17
2019-03-26T13:26:22.931Z,24.63
2019-03-26T13:28:51.849Z,19.95
2019-03-26T13:31:22.034Z,20.52
2019-03-26T13:33:51.309Z,16.25
2019-03-26T13:36:21.559Z,14.53
2019-03-26T13:38:50.959Z,17.95
2019-03-26T13:41:19.262Z,16.93
2019-03-26T13:43:49.068Z,14.55
2019-03-26T13:46:17.546Z,15.05
2019-03-26T13:48:46.707Z,15.03
2019-03-26T13:51:15.977Z,14.45
2019-03-26T13:53:44.461Z,21.30
2019-03-26T13:56:12.904Z,15.20
2019-03-26T13:58:41.292Z,15.13
2019-03-26T14:01:16.816Z,13.32
2019-03-26T14:03:45.241Z,16.75
2019-03-26T14:06:16.975Z,13.85
2019-03-26T14:08:45.339Z,14.65
2019-03-26T14:11:18.589Z,13.62
2019-03-26T14:13:47.243Z,10.43
2019-03-26T14:16:21.981Z,10.90
2019-03-26T14:18:50.365Z,10.60
2019-03-26T14:21:19.198Z,15.03
2019-03-26T14:23:47.601Z,13.58
2019-03-26T14:26:29.827Z,10.32
2019-03-26T14:28:58.573Z,14.45
2019-03-26T14:31:27.227Z,7.95
2019-03-26T14:34:02.703Z,6.75
2019-03-26T14:36:31.345Z,8.53
2019-03-26T14:38:59.811Z,10.93
2019-03-26T14:41:28.216Z,8.23
2019-03-26T14:43:56.614Z,10.05
2019-03-26T14:46:25.183Z,9.90
2019-03-26T14:48:53.958Z,9.43
2019-03-26T14:51:23.201Z,8.10
2019-03-26T14:53:51.932Z,8.43
2019-03-26T14:56:20.767Z,8.05
2019-03-26T14:58:49.435Z,7.90
2019-03-26T15:01:21.687Z,9.45
2019-03-26T15:03:50.782Z,9.33
2019-03-26T15:06:19.253Z,8.03
2019-03-26T15:08:47.962Z,7.22
2019-03-26T15:11:16.660Z,5.83
2019-03-26T15:13:45.195Z,6.17
2019-03-26T15:16:19.135Z,8.00
2019-03-26T15:18:47.805Z,10.40
2019-03-26T15:21:16.210Z,8.33
2019-03-26T15:23:44.578Z,7.53
2019-03-26T15:26:26.733Z,8.58
2019-03-26T15:28:55.104Z,4.37
2019-03-26T15:31:23.592Z,6.58
2019-03-26T15:33:51.997Z,9.00
2019-03-26T15:36:20.362Z,4.95
2019-03-26T15:38:48.802Z,8.70
2019-03-26T15:41:21.906Z,6.60
2019-03-26T15:43:47.306Z,8.93
2019-03-26T15:46:15.651Z,4.80
2019-03-26T15:48:44.220Z,6.22
2019-03-26T15:51:13.163Z,3.85
2019-03-26T15:53:41.568Z,5.40
2019-03-26T15:56:17.073Z,6.47
2019-03-26T15:58:45.763Z,4.83
2019-03-26T16:01:14.187Z,8.68
2019-03-26T16:03:42.891Z,5.58
2019-03-26T16:06:21.669Z,6.40
2019-03-26T16:08:50.055Z,3.50
2019-03-26T16:11:19.806Z,5.28
2019-03-26T16:13:48.232Z,4.37
2019-03-26T16:16:17.895Z,7.50
2019-03-26T16:18:46.720Z,6.25
2019-03-26T16:21:22.285Z,6.47
2019-03-26T16:23:50.755Z,5.78
2019-03-26T16:26:22.104Z,4.47
2019-03-26T16:28:50.543Z,4.30
2019-03-26T16:31:19.338Z,6.03
2019-03-26T16:33:48.155Z,6.25
2019-03-26T16:36:16.908Z,5.90
2019-03-26T16:38:45.796Z,8.48
2019-03-26T16:41:15.163Z,6.65
2019-03-26T16:43:43.631Z,5.67
2019-03-26T16:46:12.606Z,6.50
2019-03-26T16:48:41.450Z,6.30
2019-03-26T16:51:10.823Z,6.80
2019-03-26T16:53:39.183Z,7.92
2019-03-26T16:56:14.757Z,6.37
2019-03-26T16:58:43.569Z,6.90
2019-03-26T17:01:12.395Z,4.78
2019-03-26T17:03:40.851Z,6.05
2019-03-26T17:06:17.145Z,5.37
2019-03-26T17:08:45.757Z,7.80
2019-03-26T17:11:20.997Z,6.47
2019-03-26T17:13:49.818Z,4.05
2019-03-26T17:16:18.463Z,4.40
2019-03-26T17:18:46.847Z,5.35
2019-03-26T17:21:22.452Z,5.12
2019-03-26T17:23:51.087Z,5.70
2019-03-26T17:26:24.864Z,4.83
2019-03-26T17:28:53.300Z,5.40
2019-03-26T17:31:28.765Z,6.15
2019-03-26T17:33:57.124Z,3.98
2019-03-26T17:36:25.600Z,7.60
2019-03-26T17:38:54.011Z,4.62
2019-03-26T17:41:22.654Z,8.75
2019-03-26T17:43:51.103Z,5.08
2019-03-26T17:46:19.592Z,4.28
2019-03-26T17:48:48.095Z,8.58
2019-03-26T17:51:16.505Z,5.15
2019-03-26T17:53:45.140Z,4.92
2019-03-26T17:56:16.293Z,5.05
2019-03-26T17:58:45.072Z,8.18
2019-03-26T18:01:20.014Z,4.92
2019-03-26T18:03:48.358Z,4.20
2019-03-26T18:06:16.761Z,8.70
2019-03-26T18:08:45.439Z,5.62
2019-03-26T18:11:13.868Z,4.62
2019-03-26T18:13:42.270Z,6.37
2019-03-26T18:16:10.787Z,5.22
2019-03-26T18:18:39.988Z,9.03
2019-03-26T18:21:15.820Z,12.58
2019-03-26T18:23:44.408Z,6.50
2019-03-26T18:26:19.282Z,9.18
2019-03-26T18:28:47.672Z,6.87
2019-03-26T18:31:18.071Z,7.33
2019-03-26T18:33:46.492Z,9.65
2019-03-26T18:36:21.889Z,7.22
2019-03-26T18:38:50.496Z,8.70
2019-03-26T18:41:25.317Z,8.88
2019-03-26T18:43:53.679Z,7.55
2019-03-26T18:46:24.879Z,5.00
2019-03-26T18:48:54.131Z,8.03
2019-03-26T18:51:25.168Z,6.00
2019-03-26T18:53:53.573Z,5.80
2019-03-26T18:56:22.021Z,6.28
2019-03-26T18:58:56.639Z,11.80
2019-03-26T19:01:25.018Z,4.53
2019-03-26T19:03:53.579Z,6.17
2019-03-26T19:06:22.073Z,9.90
2019-03-26T19:08:51.980Z,6.37
2019-03-26T19:11:20.970Z,8.00
2019-03-26T19:13:50.436Z,6.75
2019-03-26T19:16:18.768Z,7.97
2019-03-26T19:18:47.378Z,4.47
2019-03-26T19:21:15.784Z,8.20
2019-03-26T19:23:44.481Z,4.70
2019-03-26T19:26:13.111Z,6.87
2019-03-26T19:28:42.179Z,7.30
2019-03-26T19:31:16.571Z,4.60
2019-03-26T19:33:45.051Z,7.15
2019-03-26T19:36:20.194Z,7.45
2019-03-26T19:38:49.675Z,7.70
2019-03-26T19:41:18.415Z,7.97
2019-03-26T19:43:48.442Z,5.83
2019-03-26T19:46:17.129Z,8.63
2019-03-26T19:48:45.572Z,4.47
2019-03-26T19:51:14.198Z,6.45
2019-03-26T19:53:43.044Z,6.33
2019-03-26T19:56:11.354Z,4.00
2019-03-26T19:58:39.780Z,4.10
2019-03-26T20:01:08.666Z,4.87
2019-03-26T20:03:37.182Z,4.15
2019-03-26T20:06:19.549Z,7.47
2019-03-26T20:08:47.915Z,4.83
2019-03-26T20:11:23.621Z,5.22
2019-03-26T20:13:52.280Z,5.67
2019-03-26T20:16:20.706Z,4.47
2019-03-26T20:18:49.746Z,3.30
2019-03-26T20:21:20.979Z,4.53
2019-03-26T20:23:49.395Z,4.03
2019-03-26T20:26:22.927Z,4.20
2019-03-26T20:28:51.364Z,6.22
2019-03-26T20:31:22.430Z,6.83
2019-03-26T20:33:50.850Z,15.15
2019-03-26T20:36:19.608Z,6.17
2019-03-26T20:38:48.042Z,4.47
2019-03-26T20:41:21.791Z,5.75
2019-03-26T20:43:50.452Z,4.05
2019-03-26T20:46:19.341Z,5.28
2019-03-26T20:48:48.101Z,3.87
2019-03-26T20:51:20.633Z,6.17
2019-03-26T20:56:23.686Z,4.05
2019-03-26T20:58:52.056Z,6.28
2019-03-26T21:01:20.455Z,3.72
2019-03-26T21:03:49.171Z,6.95
2019-03-26T21:06:23.597Z,5.15
2019-03-26T21:08:52.058Z,6.92
2019-03-26T21:11:22.140Z,4.42
2019-03-26T21:13:51.212Z,4.17
2019-03-26T21:16:19.645Z,3.35
2019-03-26T21:18:48.106Z,6.40
2019-03-26T21:21:22.868Z,6.35
2019-03-26T21:23:51.847Z,4.53
2019-03-26T21:26:25.419Z,5.12
2019-03-26T21:28:54.486Z,4.95
2019-03-26T21:31:22.891Z,5.83
2019-03-26T21:33:51.600Z,8.10
2019-03-26T21:36:20.004Z,4.78
2019-03-26T21:38:48.680Z,7.97
2019-03-26T21:41:17.791Z,6.78
2019-03-26T21:43:46.345Z,6.12
2019-03-26T21:46:15.361Z,2.85
2019-03-26T21:48:43.774Z,4.65
2019-03-26T21:51:18.556Z,4.85
2019-03-26T21:53:46.951Z,4.05
2019-03-26T21:56:18.815Z,6.85
2019-03-26T21:58:47.166Z,6.70
2019-03-26T22:01:24.035Z,8.80
2019-03-26T22:03:52.447Z,5.75
2019-03-26T22:06:28.072Z,5.08
2019-03-26T22:08:56.486Z,8.68
2019-03-26T22:11:26.135Z,6.12
2019-03-26T22:13:54.487Z,5.10
2019-03-26T22:16:24.763Z,7.80
2019-03-26T22:18:53.541Z,4.37
2019-03-26T22:21:22.690Z,5.30
2019-03-26T22:23:51.090Z,5.30
2019-03-26T22:26:19.922Z,9.53
2019-03-26T22:28:48.606Z,6.62
2019-03-26T22:31:22.975Z,6.65
2019-03-26T22:33:56.111Z,5.08
2019-03-26T22:36:24.483Z,7.72
2019-03-26T22:38:52.892Z,6.22
2019-03-26T22:41:21.630Z,8.85
2019-03-26T22:43:50.027Z,5.72
2019-03-26T22:46:19.189Z,7.53
2019-03-26T22:48:48.008Z,4.62
2019-03-26T22:51:16.396Z,5.17
2019-03-26T22:53:45.164Z,7.42
2019-03-26T22:56:19.887Z,7.40
2019-03-26T22:58:48.551Z,5.83
2019-03-26T23:01:23.821Z,5.42
2019-03-26T23:03:52.279Z,5.92
2019-03-26T23:06:21.751Z,7.10
2019-03-26T23:08:50.572Z,6.50
2019-03-26T23:11:18.938Z,6.50
2019-03-26T23:13:47.688Z,5.03
2019-03-26T23:16:16.051Z,5.00
2019-03-26T23:18:44.793Z,3.85
2019-03-26T23:21:13.631Z,3.33
2019-03-26T23:23:42.272Z,5.50
2019-03-26T23:26:14.454Z,5.90
2019-03-26T23:28:43.114Z,4.53
2019-03-26T23:31:13.576Z,5.42
2019-03-26T23:33:42.039Z,5.75
2019-03-26T23:36:10.972Z,5.80
2019-03-26T23:38:39.703Z,5.58
2019-03-26T23:41:11.837Z,7.30
2019-03-26T23:43:40.521Z,6.83
2019-03-26T23:46:15.012Z,6.12
2019-03-26T23:48:43.373Z,3.15
2019-03-26T23:51:18.157Z,5.30
2019-03-26T23:53:46.465Z,6.05
2019-03-26T23:56:15.262Z,5.05
2019-03-26T23:58:44.002Z,5.10
